Time;durP1;ratioP1;P1;durP2;ratioP2;P2;SDS_P1;SDS_P2;PMS_P1;PMS_P2;Temp;Humidity;BMP_temperature;BMP_pressure;BME280_temperature;BME280_humidity;BME280_pressure;Samples;Min_cycle;Max_cycle;Signal;HPM_P1;HPM_P2
2021/12/08 09:17:00;;;;;;;5.03;3.13;;;;;;;;;;6249614;22;20039;-80
2021/12/08 09:19:40;;;;;;;6.40;3.33;;;;;;;;;;6224515;22;20016;-79
2021/12/08 09:22:08;;;;;;;3.57;2.70;;;;;;;;;;6216724;23;20063;-78
2021/12/08 09:24:57;;;;;;;4.55;2.70;;;;;;;;;;6217018;23;20077;-79
2021/12/08 09:27:28;;;;;;;5.95;3.47;;;;;;;;;;6216833;23;20013;-78
2021/12/08 09:29:58;;;;;;;4.57;2.70;;;;;;;;;;6217011;23;19996;-78
2021/12/08 09:32:43;;;;;;;4.53;2.70;;;;;;;;;;6216849;23;20115;-79
2021/12/08 09:35:18;;;;;;;6.43;3.38;;;;;;;;;;6216697;23;20012;-79
2021/12/08 09:37:49;;;;;;;8.23;3.60;;;;;;;;;;6216845;23;20007;-79
2021/12/08 09:40:18;;;;;;;6.35;3.28;;;;;;;;;;6217354;23;20007;-79
2021/12/08 09:42:48;;;;;;;6.03;3.10;;;;;;;;;;6216975;23;20005;-79
2021/12/08 09:45:27;;;;;;;4.10;2.90;;;;;;;;;;6216545;23;20009;-83
2021/12/08 09:47:53;;;;;;;4.17;3.33;;;;;;;;;;6216930;23;20103;-86
2021/12/08 09:50:19;;;;;;;5.10;3.13;;;;;;;;;;6216794;23;20335;-82
2021/12/08 09:52:46;;;;;;;7.85;3.40;;;;;;;;;;6216797;23;20012;-84
2021/12/08 09:55:15;;;;;;;6.35;3.33;;;;;;;;;;6216825;23;20054;-82
2021/12/08 09:57:42;;;;;;;5.00;2.87;;;;;;;;;;6216835;23;20015;-83
2021/12/08 10:00:11;;;;;;;4.05;2.92;;;;;;;;;;6215135;23;20245;-83
2021/12/08 10:02:37;;;;;;;5.00;3.03;;;;;;;;;;6216328;23;20020;-83
2021/12/08 10:05:08;;;;;;;6.50;3.28;;;;;;;;;;6216366;23;20004;-82
2021/12/08 10:07:35;;;;;;;6.50;4.07;;;;;;;;;;6216759;23;20001;-82
2021/12/08 10:10:01;;;;;;;8.85;4.13;;;;;;;;;;6215427;23;20039;-80
2021/12/08 10:12:27;;;;;;;4.57;3.35;;;;;;;;;;6216111;23;20079;-80
2021/12/08 10:14:53;;;;;;;6.70;3.22;;;;;;;;;;6216328;23;20032;-80
2021/12/08 10:17:19;;;;;;;3.63;2.85;;;;;;;;;;6215978;23;20005;-79
2021/12/08 10:19:47;;;;;;;4.15;2.65;;;;;;;;;;6241624;23;20026;-80
2021/12/08 10:22:17;;;;;;;4.93;3.08;;;;;;;;;;6246515;22;20015;-80
2021/12/08 10:25:02;;;;;;;7.15;4.03;;;;;;;;;;6245009;22;20121;-80
2021/12/08 10:27:28;;;;;;;8.38;4.35;;;;;;;;;;6246892;22;20079;-80
2021/12/08 10:29:53;;;;;;;4.78;2.47;;;;;;;;;;6244996;23;20038;-81
2021/12/08 10:32:19;;;;;;;5.75;3.00;;;;;;;;;;6246653;22;20007;-81
2021/12/08 10:34:58;;;;;;;5.90;2.75;;;;;;;;;;6246568;22;20001;-81
2021/12/08 10:37:23;;;;;;;8.32;4.00;;;;;;;;;;6246502;22;20079;-83
2021/12/08 10:39:52;;;;;;;5.57;3.53;;;;;;;;;;6246491;22;20138;-81
2021/12/08 10:42:18;;;;;;;4.40;3.50;;;;;;;;;;6246450;22;20004;-82
2021/12/08 10:47:39;;;;;;;5.18;3.55;;;;;;;;;;6246775;23;20827;-82
2021/12/08 10:55:40;;;;;;;5.22;3.50;;;;;;;;;;6246655;22;20015;-84
2021/12/08 10:58:07;;;;;;;5.45;3.53;;;;;;;;;;6246213;22;20027;-83
2021/12/08 11:00:37;;;;;;;12.90;6.80;;;;;;;;;;6244881;23;20004;-83
2021/12/08 11:03:14;;;;;;;4.68;3.72;;;;;;;;;;6246008;22;20456;-85
2021/12/08 11:05:53;;;;;;;10.65;6.30;;;;;;;;;;6246377;22;20000;-82
2021/12/08 11:08:18;;;;;;;6.35;4.45;;;;;;;;;;6246360;23;20000;-81
2021/12/08 11:10:49;;;;;;;13.85;8.75;;;;;;;;;;6245981;23;20027;-82
2021/12/08 11:13:20;;;;;;;6.32;4.00;;;;;;;;;;6245678;23;20422;-82
2021/12/08 11:15:47;;;;;;;6.07;5.35;;;;;;;;;;6245953;22;20060;-81
2021/12/08 11:18:22;;;;;;;4.43;3.28;;;;;;;;;;6238290;22;20015;-82
2021/12/08 11:21:03;;;;;;;3.90;3.22;;;;;;;;;;6216025;23;20420;-82
2021/12/08 11:23:45;;;;;;;3.88;2.85;;;;;;;;;;6215386;23;20012;-82
2021/12/08 11:26:12;;;;;;;4.72;3.17;;;;;;;;;;6215437;23;20043;-81
2021/12/08 11:28:38;;;;;;;4.05;3.55;;;;;;;;;;6215558;23;20001;-80
2021/12/08 11:31:09;;;;;;;6.20;3.55;;;;;;;;;;6215670;23;20007;-80
2021/12/08 11:33:37;;;;;;;10.90;6.80;;;;;;;;;;6215640;23;20011;-81
2021/12/08 11:36:09;;;;;;;5.43;3.75;;;;;;;;;;6215603;23;20079;-82
2021/12/08 11:38:34;;;;;;;7.13;4.70;;;;;;;;;;6188813;23;20011;-82
2021/12/08 11:41:00;;;;;;;5.82;3.85;;;;;;;;;;6188771;23;20084;-81
2021/12/08 11:43:30;;;;;;;5.22;4.05;;;;;;;;;;6215510;23;20009;-82
2021/12/08 11:46:12;;;;;;;;;;;;;;;;;;6216179;23;20470;-82
2021/12/08 11:49:04;;;;;;;4.13;3.53;;;;;;;;;;6189316;23;19912;-82
2021/12/08 11:51:51;;;;;;;3.60;3.05;;;;;;;;;;6215420;23;20000;-82
2021/12/08 11:54:36;;;;;;;5.57;4.93;;;;;;;;;;6215713;23;20090;-82
2021/12/08 11:57:12;;;;;;;4.88;3.67;;;;;;;;;;6215473;23;20024;-81
2021/12/08 11:59:46;;;;;;;5.28;4.05;;;;;;;;;;6215798;23;20005;-81
2021/12/08 12:02:14;;;;;;;4.68;3.38;;;;;;;;;;6214038;23;20028;-80
2021/12/08 12:04:41;;;;;;;7.63;4.05;;;;;;;;;;6215840;23;20130;-80
2021/12/08 12:07:09;;;;;;;6.00;3.88;;;;;;;;;;6215626;23;20007;-80
2021/12/08 12:09:34;;;;;;;4.43;2.90;;;;;;;;;;6215655;23;20055;-81
2021/12/08 12:12:00;;;;;;;3.92;3.40;;;;;;;;;;6215696;23;20423;-80
2021/12/08 12:14:28;;;;;;;5.70;3.30;;;;;;;;;;6189022;23;20363;-81
2021/12/08 12:16:54;;;;;;;4.25;3.20;;;;;;;;;;6216000;23;20063;-81
2021/12/08 12:19:24;;;;;;;6.97;2.88;;;;;;;;;;6215292;23;20012;-81
2021/12/08 12:22:01;;;;;;;3.83;2.92;;;;;;;;;;6215691;23;20005;-84
2021/12/08 12:24:46;;;;;;;3.05;2.58;;;;;;;;;;6215406;23;20028;-85
2021/12/08 12:27:33;;;;;;;2.40;2.20;;;;;;;;;;6188742;23;20327;-83
2021/12/08 12:30:05;;;;;;;2.80;2.50;;;;;;;;;;6215686;23;20004;-81
2021/12/08 12:32:42;;;;;;;3.47;2.47;;;;;;;;;;6215465;23;20017;-83
2021/12/08 12:35:29;;;;;;;3.90;3.05;;;;;;;;;;6217192;23;20007;-83
2021/12/08 12:38:03;;;;;;;2.47;2.00;;;;;;;;;;6217196;23;20004;-83
2021/12/08 12:40:47;;;;;;;2.67;2.30;;;;;;;;;;6217402;23;20043;-85
2021/12/08 12:43:38;;;;;;;3.83;2.55;;;;;;;;;;6217443;23;20490;-83
2021/12/08 12:46:12;;;;;;;2.65;2.45;;;;;;;;;;6217290;23;20515;-84
2021/12/08 12:48:38;;;;;;;5.63;3.10;;;;;;;;;;6217724;23;20074;-84
2021/12/08 12:51:16;;;;;;;4.55;2.45;;;;;;;;;;6191089;23;20431;-86
2021/12/08 12:53:56;;;;;;;2.90;2.60;;;;;;;;;;6217218;23;20032;-84
2021/12/08 12:56:28;;;;;;;3.67;2.35;;;;;;;;;;6217704;23;20031;-83
2021/12/08 12:58:55;;;;;;;3.50;2.67;;;;;;;;;;6217539;23;20071;-85
2021/12/08 13:01:30;;;;;;;3.35;2.22;;;;;;;;;;6217645;23;19996;-84
2021/12/08 13:04:04;;;;;;;5.63;3.55;;;;;;;;;;6217107;23;20004;-84
2021/12/08 13:06:42;;;;;;;2.80;2.40;;;;;;;;;;6217085;23;20012;-84
2021/12/08 13:09:28;;;;;;;3.78;2.95;;;;;;;;;;6217463;23;20010;-85
2021/12/08 13:12:11;;;;;;;3.88;2.72;;;;;;;;;;6218133;23;20011;-86
2021/12/08 13:14:38;;;;;;;3.40;2.83;;;;;;;;;;6216677;23;20012;-82
2021/12/08 13:17:20;;;;;;;5.05;2.70;;;;;;;;;;6214937;23;20066;-83
2021/12/08 13:19:56;;;;;;;2.95;2.33;;;;;;;;;;6214379;23;20012;-83
2021/12/08 13:22:55;;;;;;;3.17;2.33;;;;;;;;;;6189192;23;20001;-84
2021/12/08 13:25:31;;;;;;;3.08;2.35;;;;;;;;;;6216656;23;20001;-83
2021/12/08 13:28:17;;;;;;;2.90;2.40;;;;;;;;;;6190524;23;20450;-82
2021/12/08 13:30:52;;;;;;;3.03;2.13;;;;;;;;;;6216609;23;20409;-82
2021/12/08 13:33:30;;;;;;;4.85;3.20;;;;;;;;;;6216882;23;19996;-83
2021/12/08 13:35:59;;;;;;;4.15;2.30;;;;;;;;;;6216636;23;20335;-84
2021/12/08 13:38:25;;;;;;;2.20;1.98;;;;;;;;;;6216803;23;20000;-83
2021/12/08 13:40:57;;;;;;;2.25;2.05;;;;;;;;;;6216580;23;20316;-81
2021/12/08 13:43:38;;;;;;;2.53;2.13;;;;;;;;;;6216555;23;20386;-83
2021/12/08 13:46:06;;;;;;;2.58;2.30;;;;;;;;;;6191084;23;20011;-82
2021/12/08 13:48:31;;;;;;;2.63;2.30;;;;;;;;;;6216729;23;20004;-82
2021/12/08 13:51:23;;;;;;;4.57;3.13;;;;;;;;;;6165482;23;20015;-82
2021/12/08 13:54:28;;;;;;;2.60;2.15;;;;;;;;;;6213617;23;20013;-82
2021/12/08 13:56:55;;;;;;;3.33;2.10;;;;;;;;;;6214822;23;20012;-83
2021/12/08 13:59:58;;;;;;;3.00;2.33;;;;;;;;;;6216463;23;20004;-83
2021/12/08 14:02:26;;;;;;;2.65;1.85;;;;;;;;;;6216455;23;20004;-83
2021/12/08 14:05:00;;;;;;;2.80;2.20;;;;;;;;;;6216165;23;20004;-83
2021/12/08 14:07:26;;;;;;;4.22;2.15;;;;;;;;;;6214747;23;20379;-82
2021/12/08 14:10:00;;;;;;;2.88;2.00;;;;;;;;;;6216554;23;20043;-82
2021/12/08 14:12:50;;;;;;;3.90;2.20;;;;;;;;;;6216655;23;20070;-82
2021/12/08 14:15:24;;;;;;;3.03;2.08;;;;;;;;;;6216203;23;20047;-81
2021/12/08 14:17:50;;;;;;;3.05;2.15;;;;;;;;;;6216537;23;20043;-83
2021/12/08 14:20:31;;;;;;;2.10;1.85;;;;;;;;;;6216470;23;20004;-84
2021/12/08 14:22:57;;;;;;;2.90;2.10;;;;;;;;;;6216116;23;20012;-81
2021/12/08 14:25:41;;;;;;;3.20;1.83;;;;;;;;;;6216066;23;20008;-83
2021/12/08 14:28:40;;;;;;;2.53;2.00;;;;;;;;;;6216321;23;20372;-84
2021/12/08 14:31:23;;;;;;;1.80;1.42;;;;;;;;;;6216402;23;20011;-83
2021/12/08 14:34:02;;;;;;;2.45;2.10;;;;;;;;;;6215742;23;20028;-83
2021/12/08 14:36:38;;;;;;;2.85;2.08;;;;;;;;;;6216204;23;20008;-83
2021/12/08 14:39:17;;;;;;;1.85;1.75;;;;;;;;;;6215879;23;20008;-83
2021/12/08 14:41:42;;;;;;;4.78;3.35;;;;;;;;;;6216098;23;20071;-84
2021/12/08 14:44:15;;;;;;;8.18;6.93;;;;;;;;;;6215780;23;20008;-83
2021/12/08 14:46:42;;;;;;;10.68;7.47;;;;;;;;;;6189604;23;20034;-84
2021/12/08 14:49:11;;;;;;;3.50;2.88;;;;;;;;;;6215639;23;20000;-82
2021/12/08 14:51:38;;;;;;;3.22;2.50;;;;;;;;;;6214068;23;20012;-82
2021/12/08 14:54:12;;;;;;;2.55;2.35;;;;;;;;;;6216013;23;19997;-82
2021/12/08 14:56:38;;;;;;;2.72;2.33;;;;;;;;;;6215352;23;20005;-82
2021/12/08 14:59:05;;;;;;;31.35;19.05;;;;;;;;;;6215868;23;20031;-82
2021/12/08 15:01:31;;;;;;;23.95;11.50;;;;;;;;;;6215870;23;20051;-83
2021/12/08 15:03:57;;;;;;;7.57;5.50;;;;;;;;;;6215822;23;20375;-82
2021/12/08 15:06:23;;;;;;;7.97;5.78;;;;;;;;;;6215778;23;20071;-81
2021/12/08 15:08:50;;;;;;;8.60;6.53;;;;;;;;;;6215872;23;20009;-81
2021/12/08 15:11:27;;;;;;;3.38;2.30;;;;;;;;;;6215720;23;20086;-83
2021/12/08 15:13:54;;;;;;;4.15;2.47;;;;;;;;;;6215754;23;20083;-83
2021/12/08 15:16:21;;;;;;;3.60;3.25;;;;;;;;;;6215977;23;20009;-82
2021/12/08 15:18:51;;;;;;;4.53;2.25;;;;;;;;;;6215446;23;20393;-82
2021/12/08 15:21:34;;;;;;;6.40;4.53;;;;;;;;;;6215719;23;20332;-82
2021/12/08 15:24:06;;;;;;;2.67;2.00;;;;;;;;;;6215406;23;20027;-82
2021/12/08 15:26:32;;;;;;;3.80;2.47;;;;;;;;;;6215652;23;20011;-82
2021/12/08 15:29:00;;;;;;;4.72;2.90;;;;;;;;;;6215481;23;20024;-82
2021/12/08 15:31:49;;;;;;;3.55;2.30;;;;;;;;;;6215658;23;20005;-82
2021/12/08 15:34:26;;;;;;;2.85;2.20;;;;;;;;;;6215580;23;19997;-82
2021/12/08 15:37:05;;;;;;;4.60;2.45;;;;;;;;;;6215070;23;20008;-82
2021/12/08 15:39:35;;;;;;;3.53;2.28;;;;;;;;;;6215828;23;20005;-82
2021/12/08 15:42:03;;;;;;;3.35;2.90;;;;;;;;;;6215903;23;20115;-81
2021/12/08 15:44:33;;;;;;;3.20;2.20;;;;;;;;;;6215758;23;20039;-82
2021/12/08 15:46:58;;;;;;;7.57;4.28;;;;;;;;;;6215514;23;20077;-82
2021/12/08 15:49:27;;;;;;;8.25;5.68;;;;;;;;;;6215846;23;20029;-83
2021/12/08 15:52:00;;;;;;;6.03;3.55;;;;;;;;;;6215774;23;20412;-83
2021/12/08 15:54:25;;;;;;;2.78;2.20;;;;;;;;;;6215527;23;20551;-81
2021/12/08 18:09:07;;;;;;;3.23;2.50;;;;;;;;;;6224658;23;20012;-90
2021/12/08 18:11:32;;;;;;;2.95;2.20;;;;;;;;;;6251041;23;20015;-89
2021/12/08 18:13:58;;;;;;;6.70;4.60;;;;;;;;;;6249658;22;20004;-88
2021/12/08 18:16:25;;;;;;;5.70;3.50;;;;;;;;;;6250941;22;20079;-86
2021/12/08 18:18:52;;;;;;;4.10;2.72;;;;;;;;;;6254847;23;20015;-93
2021/12/08 18:21:18;;;;;;;3.58;2.78;;;;;;;;;;6247297;23;20032;-85
2021/12/08 18:23:44;;;;;;;5.30;3.60;;;;;;;;;;6248246;22;20040;-87
2021/12/08 18:26:10;;;;;;;5.28;3.92;;;;;;;;;;6247275;23;20004;-86
2021/12/08 18:28:36;;;;;;;3.55;2.65;;;;;;;;;;6247389;23;20004;-86
2021/12/08 18:31:04;;;;;;;3.92;2.45;;;;;;;;;;6246720;23;20074;-89
2021/12/08 18:33:30;;;;;;;2.83;2.53;;;;;;;;;;6250056;22;20326;-87
2021/12/08 18:38:26;;;;;;;2.95;2.40;;;;;;;;;;6259472;22;20039;-91
2021/12/08 18:40:53;;;;;;;3.13;2.88;;;;;;;;;;6247973;23;20370;-89
2021/12/08 18:43:19;;;;;;;3.30;3.00;;;;;;;;;;6246489;23;20027;-91
2021/12/08 18:45:45;;;;;;;3.63;3.25;;;;;;;;;;6246455;22;20416;-86
2021/12/08 18:48:12;;;;;;;3.60;2.22;;;;;;;;;;6245943;23;20011;-89
2021/12/08 18:50:39;;;;;;;3.90;2.75;;;;;;;;;;6245928;23;20004;-86
2021/12/08 18:53:05;;;;;;;2.72;2.35;;;;;;;;;;6246129;23;20012;-89
2021/12/08 18:55:31;;;;;;;3.28;2.58;;;;;;;;;;6247822;22;20004;-87
2021/12/08 18:57:58;;;;;;;9.35;5.57;;;;;;;;;;6245801;23;20054;-86
2021/12/08 19:00:24;;;;;;;3.55;3.10;;;;;;;;;;6247291;22;20028;-88
2021/12/08 19:02:49;;;;;;;67.35;35.60;;;;;;;;;;6245671;23;20004;-84
2021/12/08 19:05:20;;;;;;;31.92;14.63;;;;;;;;;;6245599;22;20011;-87
2021/12/08 19:07:48;;;;;;;9.48;5.15;;;;;;;;;;6245661;23;20062;-87
2021/12/08 19:10:14;;;;;;;25.15;12.38;;;;;;;;;;6247187;22;20075;-85
2021/12/08 19:12:40;;;;;;;19.90;11.00;;;;;;;;;;6245591;23;20000;-87
2021/12/08 19:15:08;;;;;;;7.85;5.00;;;;;;;;;;6247116;22;20430;-83
2021/12/08 19:17:36;;;;;;;4.00;3.05;;;;;;;;;;6247092;22;20007;-86
2021/12/08 19:20:04;;;;;;;5.65;3.47;;;;;;;;;;6245886;23;20011;-83
2021/12/08 19:22:30;;;;;;;13.20;10.52;;;;;;;;;;6245811;23;20008;-88
2021/12/08 19:24:58;;;;;;;4.47;3.05;;;;;;;;;;6245954;22;20000;-85
2021/12/08 19:27:24;;;;;;;2.58;2.30;;;;;;;;;;6245845;23;20004;-91
2021/12/08 19:29:50;;;;;;;3.78;2.85;;;;;;;;;;6245879;23;20070;-87
2021/12/08 19:32:15;;;;;;;4.75;2.80;;;;;;;;;;6246459;23;20011;-88
2021/12/08 19:34:41;;;;;;;3.88;2.97;;;;;;;;;;6246417;22;20008;-90
2021/12/08 19:37:07;;;;;;;4.13;3.33;;;;;;;;;;6247239;23;20004;-86
2021/12/08 19:39:33;;;;;;;5.85;3.42;;;;;;;;;;6246477;23;20058;-84
2021/12/08 19:41:59;;;;;;;3.08;2.30;;;;;;;;;;6247928;23;20004;-87
2021/12/08 19:44:25;;;;;;;2.90;2.60;;;;;;;;;;6250753;22;20000;-89
2021/12/08 19:46:51;;;;;;;3.75;2.50;;;;;;;;;;6251755;23;20000;-89
2021/12/08 19:49:17;;;;;;;11.38;7.35;;;;;;;;;;6251836;23;20108;-88
2021/12/08 19:51:48;;;;;;;6.25;4.57;;;;;;;;;;6250208;23;20001;-87
2021/12/08 19:54:14;;;;;;;6.03;4.43;;;;;;;;;;6249932;22;20011;-87
2021/12/08 19:56:41;;;;;;;5.68;3.85;;;;;;;;;;6248014;23;20004;-89
2021/12/08 19:59:07;;;;;;;5.82;4.35;;;;;;;;;;6248067;23;20004;-88
2021/12/08 20:01:33;;;;;;;5.32;3.00;;;;;;;;;;6247708;23;20031;-88
2021/12/08 20:03:58;;;;;;;4.00;2.88;;;;;;;;;;6247470;22;20007;-88
2021/12/08 20:06:24;;;;;;;3.50;2.40;;;;;;;;;;6248424;23;20008;-84
2021/12/08 20:08:50;;;;;;;7.25;3.80;;;;;;;;;;6247849;23;20023;-85
2021/12/08 20:11:19;;;;;;;4.43;3.80;;;;;;;;;;6248330;23;19996;-91
2021/12/08 20:13:47;;;;;;;3.23;2.37;;;;;;;;;;6247365;22;20000;-88
2021/12/08 20:16:13;;;;;;;3.15;2.40;;;;;;;;;;6247527;23;20011;-88
2021/12/08 20:18:39;;;;;;;3.70;2.75;;;;;;;;;;6249195;22;20004;-86
2021/12/08 20:21:05;;;;;;;3.58;2.63;;;;;;;;;;6247466;23;20011;-88
2021/12/08 20:23:36;;;;;;;2.92;2.35;;;;;;;;;;6247086;22;20016;-88
2021/12/08 20:26:04;;;;;;;3.15;2.50;;;;;;;;;;6248702;22;20076;-89
2021/12/08 20:28:29;;;;;;;3.13;2.22;;;;;;;;;;6248785;22;20007;-90
2021/12/08 20:30:55;;;;;;;3.55;3.08;;;;;;;;;;6248439;23;20004;-89
2021/12/08 20:33:20;;;;;;;3.55;2.63;;;;;;;;;;6248805;22;20407;-89
2021/12/08 20:35:47;;;;;;;3.03;2.38;;;;;;;;;;6248751;22;20004;-86
2021/12/08 20:38:12;;;;;;;3.80;2.47;;;;;;;;;;6253198;22;20024;-84
